sensor_id;sensor_type;location;lat;lon;timestamp;temperature;humidity
29939;DHT22;16799;50.844;5.304;2023-04-23T00:00:58;9.80;99.90
29939;DHT22;16799;50.844;5.304;2023-04-23T00:03:26;9.90;99.90
29939;DHT22;16799;50.844;5.304;2023-04-23T00:05:56;9.90;99.90
29939;DHT22;16799;50.844;5.304;2023-04-23T00:08:22;10.10;99.90
29939;DHT22;16799;50.844;5.304;2023-04-23T00:10:48;10.20;99.90
29939;DHT22;16799;50.844;5.304;2023-04-23T00:13:14;10.10;99.90
29939;DHT22;16799;50.844;5.304;2023-04-23T00:15:40;10.10;99.90
29939;DHT22;16799;50.844;5.304;2023-04-23T00:18:05;10.20;99.90
29939;DHT22;16799;50.844;5.304;2023-04-23T00:20:32;10.60;99.90
29939;DHT22;16799;50.844;5.304;2023-04-23T00:22:59;10.60;99.90
29939;DHT22;16799;50.844;5.304;2023-04-23T00:25:25;10.50;99.90
29939;DHT22;16799;50.844;5.304;2023-04-23T00:27:50;10.50;99.90
29939;DHT22;16799;50.844;5.304;2023-04-23T00:30:16;10.50;99.90
29939;DHT22;16799;50.844;5.304;2023-04-23T00:32:43;10.50;99.90
29939;DHT22;16799;50.844;5.304;2023-04-23T00:35:09;10.50;99.90
29939;DHT22;16799;50.844;5.304;2023-04-23T00:37:35;10.40;99.90
29939;DHT22;16799;50.844;5.304;2023-04-23T00:40:00;10.30;99.90
29939;DHT22;16799;50.844;5.304;2023-04-23T00:42:27;10.30;99.90
29939;DHT22;16799;50.844;5.304;2023-04-23T00:44:53;10.30;99.90
29939;DHT22;16799;50.844;5.304;2023-04-23T00:47:20;10.30;99.90
29939;DHT22;16799;50.844;5.304;2023-04-23T00:49:47;10.30;99.90
29939;DHT22;16799;50.844;5.304;2023-04-23T00:52:15;10.30;99.90
29939;DHT22;16799;50.844;5.304;2023-04-23T00:54:40;10.30;99.90
29939;DHT22;16799;50.844;5.304;2023-04-23T00:57:06;10.40;99.90
29939;DHT22;16799;50.844;5.304;2023-04-23T00:59:32;10.40;99.90
29939;DHT22;16799;50.844;5.304;2023-04-23T01:01:59;10.30;99.90
29939;DHT22;16799;50.844;5.304;2023-04-23T01:04:26;10.30;99.90
29939;DHT22;16799;50.844;5.304;2023-04-23T01:06:52;10.20;99.90
29939;DHT22;16799;50.844;5.304;2023-04-23T01:09:18;10.10;99.90
29939;DHT22;16799;50.844;5.304;2023-04-23T01:11:46;10.10;99.90
29939;DHT22;16799;50.844;5.304;2023-04-23T01:14:13;10.00;99.90
29939;DHT22;16799;50.844;5.304;2023-04-23T01:16:38;10.10;99.90
29939;DHT22;16799;50.844;5.304;2023-04-23T01:19:06;10.00;99.90
29939;DHT22;16799;50.844;5.304;2023-04-23T01:21:37;10.10;99.90
29939;DHT22;16799;50.844;5.304;2023-04-23T01:24:06;10.10;99.90
29939;DHT22;16799;50.844;5.304;2023-04-23T01:26:33;10.20;99.90
29939;DHT22;16799;50.844;5.304;2023-04-23T01:28:59;10.20;99.90
29939;DHT22;16799;50.844;5.304;2023-04-23T01:31:26;10.20;99.90
29939;DHT22;16799;50.844;5.304;2023-04-23T01:33:53;10.20;99.90
29939;DHT22;16799;50.844;5.304;2023-04-23T01:36:21;10.30;99.90
29939;DHT22;16799;50.844;5.304;2023-04-23T01:38:47;10.30;99.90
29939;DHT22;16799;50.844;5.304;2023-04-23T01:41:12;10.40;99.90
29939;DHT22;16799;50.844;5.304;2023-04-23T01:43:40;10.50;99.90
29939;DHT22;16799;50.844;5.304;2023-04-23T01:46:06;10.50;99.90
29939;DHT22;16799;50.844;5.304;2023-04-23T01:48:32;10.60;99.90
29939;DHT22;16799;50.844;5.304;2023-04-23T01:50:57;10.60;99.90
29939;DHT22;16799;50.844;5.304;2023-04-23T01:53:24;10.60;99.90
29939;DHT22;16799;50.844;5.304;2023-04-23T01:55:50;10.90;99.90
29939;DHT22;16799;50.844;5.304;2023-04-23T01:58:16;11.00;99.90
29939;DHT22;16799;50.844;5.304;2023-04-23T02:00:43;10.80;99.90
29939;DHT22;16799;50.844;5.304;2023-04-23T02:03:09;10.90;99.90
29939;DHT22;16799;50.844;5.304;2023-04-23T02:05:35;10.70;99.90
29939;DHT22;16799;50.844;5.304;2023-04-23T02:08:03;10.70;99.90
29939;DHT22;16799;50.844;5.304;2023-04-23T02:10:29;10.80;99.90
29939;DHT22;16799;50.844;5.304;2023-04-23T02:12:57;11.00;99.90
29939;DHT22;16799;50.844;5.304;2023-04-23T02:15:23;11.10;99.90
29939;DHT22;16799;50.844;5.304;2023-04-23T02:17:48;11.10;99.90
29939;DHT22;16799;50.844;5.304;2023-04-23T02:20:17;10.80;99.90
29939;DHT22;16799;50.844;5.304;2023-04-23T02:22:43;10.90;99.90
29939;DHT22;16799;50.844;5.304;2023-04-23T02:25:09;10.90;99.90
29939;DHT22;16799;50.844;5.304;2023-04-23T02:27:35;11.10;99.90
29939;DHT22;16799;50.844;5.304;2023-04-23T02:30:01;11.10;99.90
29939;DHT22;16799;50.844;5.304;2023-04-23T02:32:27;11.10;99.90
29939;DHT22;16799;50.844;5.304;2023-04-23T02:34:53;11.10;99.90
29939;DHT22;16799;50.844;5.304;2023-04-23T02:37:19;11.20;99.90
29939;DHT22;16799;50.844;5.304;2023-04-23T02:39:45;11.10;99.90
29939;DHT22;16799;50.844;5.304;2023-04-23T02:42:11;10.90;99.90
29939;DHT22;16799;50.844;5.304;2023-04-23T02:44:37;10.80;99.90
29939;DHT22;16799;50.844;5.304;2023-04-23T02:47:03;10.60;99.90
29939;DHT22;16799;50.844;5.304;2023-04-23T02:49:28;10.40;99.90
29939;DHT22;16799;50.844;5.304;2023-04-23T02:51:54;10.30;99.90
29939;DHT22;16799;50.844;5.304;2023-04-23T02:54:20;10.20;99.90
29939;DHT22;16799;50.844;5.304;2023-04-23T02:56:46;10.50;99.90
29939;DHT22;16799;50.844;5.304;2023-04-23T02:59:12;10.60;99.90
29939;DHT22;16799;50.844;5.304;2023-04-23T03:01:37;10.80;99.90
29939;DHT22;16799;50.844;5.304;2023-04-23T03:04:03;11.00;99.90
29939;DHT22;16799;50.844;5.304;2023-04-23T03:06:29;11.00;99.90
29939;DHT22;16799;50.844;5.304;2023-04-23T03:08:56;11.00;99.90
29939;DHT22;16799;50.844;5.304;2023-04-23T03:11:22;11.10;99.90
29939;DHT22;16799;50.844;5.304;2023-04-23T03:13:47;11.00;99.90
29939;DHT22;16799;50.844;5.304;2023-04-23T03:16:13;10.90;99.90
29939;DHT22;16799;50.844;5.304;2023-04-23T03:18:39;11.00;99.90
29939;DHT22;16799;50.844;5.304;2023-04-23T03:21:05;11.10;99.90
29939;DHT22;16799;50.844;5.304;2023-04-23T03:23:31;11.30;99.90
29939;DHT22;16799;50.844;5.304;2023-04-23T03:25:56;11.30;99.90
29939;DHT22;16799;50.844;5.304;2023-04-23T03:28:22;11.30;99.90
29939;DHT22;16799;50.844;5.304;2023-04-23T03:30:48;11.30;99.90
29939;DHT22;16799;50.844;5.304;2023-04-23T03:33:14;11.10;99.90
29939;DHT22;16799;50.844;5.304;2023-04-23T03:35:39;11.30;99.90
29939;DHT22;16799;50.844;5.304;2023-04-23T03:38:05;11.40;99.90
29939;DHT22;16799;50.844;5.304;2023-04-23T03:40:31;11.50;99.90
29939;DHT22;16799;50.844;5.304;2023-04-23T03:42:57;11.40;99.90
29939;DHT22;16799;50.844;5.304;2023-04-23T03:45:23;11.40;99.90
29939;DHT22;16799;50.844;5.304;2023-04-23T03:47:48;11.50;99.90
29939;DHT22;16799;50.844;5.304;2023-04-23T03:50:14;11.70;99.90
29939;DHT22;16799;50.844;5.304;2023-04-23T03:52:42;11.80;99.90
29939;DHT22;16799;50.844;5.304;2023-04-23T03:55:08;11.60;99.90
29939;DHT22;16799;50.844;5.304;2023-04-23T03:57:36;11.60;99.90
29939;DHT22;16799;50.844;5.304;2023-04-23T04:00:04;11.70;99.90
29939;DHT22;16799;50.844;5.304;2023-04-23T04:02:33;11.60;99.90
29939;DHT22;16799;50.844;5.304;2023-04-23T04:04:58;11.50;99.90
29939;DHT22;16799;50.844;5.304;2023-04-23T04:07:24;11.60;99.90
29939;DHT22;16799;50.844;5.304;2023-04-23T04:09:50;11.50;99.90
29939;DHT22;16799;50.844;5.304;2023-04-23T04:12:15;11.50;99.90
29939;DHT22;16799;50.844;5.304;2023-04-23T04:14:42;11.50;99.90
29939;DHT22;16799;50.844;5.304;2023-04-23T04:17:07;11.50;99.90
29939;DHT22;16799;50.844;5.304;2023-04-23T04:19:33;11.50;99.90
29939;DHT22;16799;50.844;5.304;2023-04-23T04:21:59;11.30;99.90
29939;DHT22;16799;50.844;5.304;2023-04-23T04:24:27;11.30;99.90
29939;DHT22;16799;50.844;5.304;2023-04-23T04:26:53;11.30;99.90
29939;DHT22;16799;50.844;5.304;2023-04-23T04:29:18;11.30;99.90
29939;DHT22;16799;50.844;5.304;2023-04-23T04:31:46;11.30;99.90
29939;DHT22;16799;50.844;5.304;2023-04-23T04:34:13;11.30;99.90
29939;DHT22;16799;50.844;5.304;2023-04-23T04:36:39;11.30;99.90
29939;DHT22;16799;50.844;5.304;2023-04-23T04:39:05;11.20;99.90
29939;DHT22;16799;50.844;5.304;2023-04-23T04:41:32;11.20;99.90
29939;DHT22;16799;50.844;5.304;2023-04-23T04:43:57;11.20;99.90
29939;DHT22;16799;50.844;5.304;2023-04-23T04:46:23;11.30;99.90
29939;DHT22;16799;50.844;5.304;2023-04-23T04:48:51;11.30;99.90
29939;DHT22;16799;50.844;5.304;2023-04-23T04:51:16;11.30;99.90
29939;DHT22;16799;50.844;5.304;2023-04-23T04:53:42;11.40;99.90
29939;DHT22;16799;50.844;5.304;2023-04-23T04:56:08;11.40;99.90
29939;DHT22;16799;50.844;5.304;2023-04-23T04:58:34;11.40;99.90
29939;DHT22;16799;50.844;5.304;2023-04-23T05:00:59;11.50;99.90
29939;DHT22;16799;50.844;5.304;2023-04-23T05:03:26;11.50;99.90
29939;DHT22;16799;50.844;5.304;2023-04-23T05:05:52;11.50;99.90
29939;DHT22;16799;50.844;5.304;2023-04-23T05:08:21;11.50;99.90
29939;DHT22;16799;50.844;5.304;2023-04-23T05:10:46;11.50;99.90
29939;DHT22;16799;50.844;5.304;2023-04-23T05:13:14;11.50;99.90
29939;DHT22;16799;50.844;5.304;2023-04-23T05:15:40;11.50;99.90
29939;DHT22;16799;50.844;5.304;2023-04-23T05:18:08;11.50;99.90
29939;DHT22;16799;50.844;5.304;2023-04-23T05:20:33;11.60;99.90
29939;DHT22;16799;50.844;5.304;2023-04-23T05:22:59;11.90;99.90
29939;DHT22;16799;50.844;5.304;2023-04-23T05:25:27;11.80;99.90
29939;DHT22;16799;50.844;5.304;2023-04-23T05:27:53;11.90;99.90
29939;DHT22;16799;50.844;5.304;2023-04-23T05:30:19;11.90;99.90
29939;DHT22;16799;50.844;5.304;2023-04-23T05:32:45;11.90;99.90
29939;DHT22;16799;50.844;5.304;2023-04-23T05:35:10;11.90;99.90
29939;DHT22;16799;50.844;5.304;2023-04-23T05:37:36;11.80;99.90
29939;DHT22;16799;50.844;5.304;2023-04-23T05:40:02;11.70;99.90
29939;DHT22;16799;50.844;5.304;2023-04-23T05:42:29;11.50;99.90
29939;DHT22;16799;50.844;5.304;2023-04-23T05:44:55;11.50;99.90
29939;DHT22;16799;50.844;5.304;2023-04-23T05:47:21;11.50;99.90
29939;DHT22;16799;50.844;5.304;2023-04-23T05:49:46;11.50;99.90
29939;DHT22;16799;50.844;5.304;2023-04-23T05:52:12;11.70;99.90
29939;DHT22;16799;50.844;5.304;2023-04-23T05:54:38;11.80;99.90
29939;DHT22;16799;50.844;5.304;2023-04-23T05:57:04;11.90;99.90
29939;DHT22;16799;50.844;5.304;2023-04-23T05:59:30;11.90;99.90
29939;DHT22;16799;50.844;5.304;2023-04-23T06:01:56;11.90;99.90
29939;DHT22;16799;50.844;5.304;2023-04-23T06:04:22;12.00;99.90
29939;DHT22;16799;50.844;5.304;2023-04-23T06:06:48;12.20;99.90
29939;DHT22;16799;50.844;5.304;2023-04-23T06:09:13;12.20;99.90
29939;DHT22;16799;50.844;5.304;2023-04-23T06:11:39;12.20;99.90
29939;DHT22;16799;50.844;5.304;2023-04-23T06:14:05;12.30;99.90
29939;DHT22;16799;50.844;5.304;2023-04-23T06:16:30;12.40;99.90
29939;DHT22;16799;50.844;5.304;2023-04-23T06:18:56;12.60;99.90
29939;DHT22;16799;50.844;5.304;2023-04-23T06:21:22;12.60;99.90
29939;DHT22;16799;50.844;5.304;2023-04-23T06:23:48;12.70;99.90
29939;DHT22;16799;50.844;5.304;2023-04-23T06:26:14;12.80;99.90
29939;DHT22;16799;50.844;5.304;2023-04-23T06:28:44;12.80;99.90
29939;DHT22;16799;50.844;5.304;2023-04-23T06:31:11;12.90;99.90
29939;DHT22;16799;50.844;5.304;2023-04-23T06:33:36;13.00;99.90
29939;DHT22;16799;50.844;5.304;2023-04-23T06:36:03;13.00;99.90
29939;DHT22;16799;50.844;5.304;2023-04-23T06:38:28;12.90;99.90
29939;DHT22;16799;50.844;5.304;2023-04-23T06:40:54;13.00;99.90
29939;DHT22;16799;50.844;5.304;2023-04-23T06:43:20;13.00;99.90
29939;DHT22;16799;50.844;5.304;2023-04-23T06:45:46;13.10;99.90
29939;DHT22;16799;50.844;5.304;2023-04-23T06:48:11;13.20;99.90
29939;DHT22;16799;50.844;5.304;2023-04-23T06:50:38;13.20;99.90
29939;DHT22;16799;50.844;5.304;2023-04-23T06:53:04;13.20;99.90
29939;DHT22;16799;50.844;5.304;2023-04-23T06:55:30;13.40;99.90
29939;DHT22;16799;50.844;5.304;2023-04-23T06:57:56;13.50;99.90
29939;DHT22;16799;50.844;5.304;2023-04-23T07:00:22;13.60;99.90
29939;DHT22;16799;50.844;5.304;2023-04-23T07:02:48;13.80;99.90
29939;DHT22;16799;50.844;5.304;2023-04-23T07:05:15;13.90;99.90
29939;DHT22;16799;50.844;5.304;2023-04-23T07:07:40;14.00;99.90
29939;DHT22;16799;50.844;5.304;2023-04-23T07:10:08;14.00;99.90
29939;DHT22;16799;50.844;5.304;2023-04-23T07:12:35;14.10;99.90
29939;DHT22;16799;50.844;5.304;2023-04-23T07:15:01;14.30;99.90
29939;DHT22;16799;50.844;5.304;2023-04-23T07:17:27;14.30;99.90
29939;DHT22;16799;50.844;5.304;2023-04-23T07:19:52;14.50;99.90
29939;DHT22;16799;50.844;5.304;2023-04-23T07:22:18;14.40;99.90
29939;DHT22;16799;50.844;5.304;2023-04-23T07:24:43;14.40;99.90
29939;DHT22;16799;50.844;5.304;2023-04-23T07:27:09;14.40;99.90
29939;DHT22;16799;50.844;5.304;2023-04-23T07:29:35;14.50;99.90
29939;DHT22;16799;50.844;5.304;2023-04-23T07:32:01;14.60;99.90
29939;DHT22;16799;50.844;5.304;2023-04-23T07:34:26;14.80;99.90
29939;DHT22;16799;50.844;5.304;2023-04-23T07:36:52;14.90;99.90
29939;DHT22;16799;50.844;5.304;2023-04-23T07:39:18;15.00;99.90
29939;DHT22;16799;50.844;5.304;2023-04-23T07:41:43;15.00;99.90
29939;DHT22;16799;50.844;5.304;2023-04-23T07:44:09;15.10;99.90
29939;DHT22;16799;50.844;5.304;2023-04-23T07:46:34;15.10;99.90
29939;DHT22;16799;50.844;5.304;2023-04-23T07:49:00;15.10;99.90
29939;DHT22;16799;50.844;5.304;2023-04-23T07:51:26;15.10;99.90
29939;DHT22;16799;50.844;5.304;2023-04-23T07:53:52;15.30;99.90
29939;DHT22;16799;50.844;5.304;2023-04-23T07:56:19;15.50;99.90
29939;DHT22;16799;50.844;5.304;2023-04-23T07:58:46;15.50;99.90
29939;DHT22;16799;50.844;5.304;2023-04-23T08:01:12;15.80;99.90
29939;DHT22;16799;50.844;5.304;2023-04-23T08:03:37;15.90;99.90
29939;DHT22;16799;50.844;5.304;2023-04-23T08:06:03;16.10;99.90
29939;DHT22;16799;50.844;5.304;2023-04-23T08:08:29;16.10;99.90
29939;DHT22;16799;50.844;5.304;2023-04-23T08:10:55;16.10;99.90
29939;DHT22;16799;50.844;5.304;2023-04-23T08:13:21;16.10;99.90
29939;DHT22;16799;50.844;5.304;2023-04-23T08:15:47;16.20;99.90
29939;DHT22;16799;50.844;5.304;2023-04-23T08:18:14;16.10;99.90
29939;DHT22;16799;50.844;5.304;2023-04-23T08:20:40;15.90;99.90
29939;DHT22;16799;50.844;5.304;2023-04-23T08:23:05;15.80;99.90
29939;DHT22;16799;50.844;5.304;2023-04-23T08:25:31;15.80;99.90
29939;DHT22;16799;50.844;5.304;2023-04-23T08:27:57;16.20;99.90
29939;DHT22;16799;50.844;5.304;2023-04-23T08:30:23;16.80;99.90
29939;DHT22;16799;50.844;5.304;2023-04-23T08:32:50;17.10;99.90
29939;DHT22;16799;50.844;5.304;2023-04-23T08:35:18;17.10;99.90
29939;DHT22;16799;50.844;5.304;2023-04-23T08:37:44;16.80;99.90
29939;DHT22;16799;50.844;5.304;2023-04-23T08:40:10;16.90;99.90
29939;DHT22;16799;50.844;5.304;2023-04-23T08:42:48;16.70;99.90
29939;DHT22;16799;50.844;5.304;2023-04-23T08:45:15;16.80;99.90
29939;DHT22;16799;50.844;5.304;2023-04-23T08:47:41;16.70;99.90
29939;DHT22;16799;50.844;5.304;2023-04-23T08:50:13;16.50;99.90
29939;DHT22;16799;50.844;5.304;2023-04-23T08:52:51;16.20;99.90
29939;DHT22;16799;50.844;5.304;2023-04-23T08:55:17;16.20;99.90
29939;DHT22;16799;50.844;5.304;2023-04-23T08:57:45;16.50;99.90
29939;DHT22;16799;50.844;5.304;2023-04-23T09:00:12;16.50;99.90
29939;DHT22;16799;50.844;5.304;2023-04-23T09:02:43;16.40;99.90
29939;DHT22;16799;50.844;5.304;2023-04-23T09:05:09;16.60;99.90
29939;DHT22;16799;50.844;5.304;2023-04-23T09:07:35;16.50;99.90
29939;DHT22;16799;50.844;5.304;2023-04-23T09:10:02;16.40;99.90
29939;DHT22;16799;50.844;5.304;2023-04-23T09:12:28;16.40;99.90
29939;DHT22;16799;50.844;5.304;2023-04-23T09:14:54;16.00;99.90
29939;DHT22;16799;50.844;5.304;2023-04-23T09:17:22;16.00;99.90
29939;DHT22;16799;50.844;5.304;2023-04-23T09:19:49;16.00;99.90
29939;DHT22;16799;50.844;5.304;2023-04-23T09:22:16;16.10;99.90
29939;DHT22;16799;50.844;5.304;2023-04-23T09:25:01;16.20;99.90
29939;DHT22;16799;50.844;5.304;2023-04-23T09:27:26;16.50;99.90
29939;DHT22;16799;50.844;5.304;2023-04-23T09:29:53;16.60;99.90
29939;DHT22;16799;50.844;5.304;2023-04-23T09:32:33;16.60;99.90
29939;DHT22;16799;50.844;5.304;2023-04-23T09:35:02;16.40;99.90
29939;DHT22;16799;50.844;5.304;2023-04-23T09:37:28;16.50;99.90
29939;DHT22;16799;50.844;5.304;2023-04-23T09:39:53;16.70;99.90
29939;DHT22;16799;50.844;5.304;2023-04-23T09:42:23;16.90;99.90
29939;DHT22;16799;50.844;5.304;2023-04-23T09:45:11;17.00;99.90
29939;DHT22;16799;50.844;5.304;2023-04-23T09:47:38;17.20;99.90
29939;DHT22;16799;50.844;5.304;2023-04-23T09:50:04;17.00;99.90
29939;DHT22;16799;50.844;5.304;2023-04-23T09:52:31;16.90;99.90
29939;DHT22;16799;50.844;5.304;2023-04-23T09:55:00;16.80;99.90
29939;DHT22;16799;50.844;5.304;2023-04-23T09:57:26;16.80;99.90
29939;DHT22;16799;50.844;5.304;2023-04-23T09:59:55;16.80;99.90
29939;DHT22;16799;50.844;5.304;2023-04-23T10:02:27;16.80;99.90
29939;DHT22;16799;50.844;5.304;2023-04-23T10:04:58;17.00;99.90
29939;DHT22;16799;50.844;5.304;2023-04-23T10:07:23;17.20;99.90
29939;DHT22;16799;50.844;5.304;2023-04-23T10:09:49;17.00;99.90
29939;DHT22;16799;50.844;5.304;2023-04-23T10:12:16;17.10;99.90
29939;DHT22;16799;50.844;5.304;2023-04-23T10:14:42;17.20;99.90
29939;DHT22;16799;50.844;5.304;2023-04-23T10:17:08;17.10;99.90
29939;DHT22;16799;50.844;5.304;2023-04-23T10:19:37;17.40;99.90
29939;DHT22;16799;50.844;5.304;2023-04-23T10:22:07;17.70;98.60
29939;DHT22;16799;50.844;5.304;2023-04-23T10:24:38;18.00;98.50
29939;DHT22;16799;50.844;5.304;2023-04-23T10:27:10;18.00;98.20
29939;DHT22;16799;50.844;5.304;2023-04-23T10:29:36;18.00;97.80
29939;DHT22;16799;50.844;5.304;2023-04-23T10:32:03;17.90;98.30
29939;DHT22;16799;50.844;5.304;2023-04-23T10:34:31;17.70;98.80
29939;DHT22;16799;50.844;5.304;2023-04-23T10:37:00;17.80;98.10
29939;DHT22;16799;50.844;5.304;2023-04-23T10:39:35;17.20;98.20
29939;DHT22;16799;50.844;5.304;2023-04-23T10:42:02;17.00;98.70
29939;DHT22;16799;50.844;5.304;2023-04-23T10:44:41;17.00;99.90
29939;DHT22;16799;50.844;5.304;2023-04-23T10:47:11;17.10;99.40
29939;DHT22;16799;50.844;5.304;2023-04-23T10:49:38;17.00;99.30
29939;DHT22;16799;50.844;5.304;2023-04-23T10:52:14;17.20;99.30
29939;DHT22;16799;50.844;5.304;2023-04-23T10:54:48;17.40;98.00
29939;DHT22;16799;50.844;5.304;2023-04-23T10:57:14;17.50;97.60
29939;DHT22;16799;50.844;5.304;2023-04-23T10:59:53;17.60;97.80
29939;DHT22;16799;50.844;5.304;2023-04-23T11:02:19;17.60;97.10
29939;DHT22;16799;50.844;5.304;2023-04-23T11:04:54;17.50;97.10
29939;DHT22;16799;50.844;5.304;2023-04-23T11:07:25;17.50;97.70
29939;DHT22;16799;50.844;5.304;2023-04-23T11:09:51;17.70;95.00
29939;DHT22;16799;50.844;5.304;2023-04-23T11:14:55;18.60;94.20
29939;DHT22;16799;50.844;5.304;2023-04-23T11:20:20;18.70;92.00
29939;DHT22;16799;50.844;5.304;2023-04-23T11:22:48;18.70;93.20
29939;DHT22;16799;50.844;5.304;2023-04-23T11:27:45;18.80;91.70
29939;DHT22;16799;50.844;5.304;2023-04-23T11:30:13;19.40;91.70
29939;DHT22;16799;50.844;5.304;2023-04-23T11:32:40;19.60;91.40
29939;DHT22;16799;50.844;5.304;2023-04-23T11:35:07;20.50;90.70
29939;DHT22;16799;50.844;5.304;2023-04-23T11:37:38;19.60;88.50
29939;DHT22;16799;50.844;5.304;2023-04-23T11:40:06;19.10;91.30
29939;DHT22;16799;50.844;5.304;2023-04-23T11:42:47;18.70;91.40
29939;DHT22;16799;50.844;5.304;2023-04-23T11:45:17;18.40;91.00
29939;DHT22;16799;50.844;5.304;2023-04-23T11:47:44;18.10;92.60
29939;DHT22;16799;50.844;5.304;2023-04-23T11:50:17;17.80;92.50
29939;DHT22;16799;50.844;5.304;2023-04-23T11:52:44;17.90;92.60
29939;DHT22;16799;50.844;5.304;2023-04-23T11:55:10;17.60;93.20
29939;DHT22;16799;50.844;5.304;2023-04-23T11:57:39;17.50;94.20
29939;DHT22;16799;50.844;5.304;2023-04-23T12:00:19;17.60;93.70
29939;DHT22;16799;50.844;5.304;2023-04-23T12:03:02;17.60;94.10
29939;DHT22;16799;50.844;5.304;2023-04-23T12:05:39;17.70;95.60
29939;DHT22;16799;50.844;5.304;2023-04-23T12:08:16;17.80;94.30
29939;DHT22;16799;50.844;5.304;2023-04-23T12:10:51;17.80;92.90
29939;DHT22;16799;50.844;5.304;2023-04-23T12:13:21;18.00;92.20
29939;DHT22;16799;50.844;5.304;2023-04-23T12:15:50;18.00;93.10
29939;DHT22;16799;50.844;5.304;2023-04-23T12:18:16;18.20;92.30
29939;DHT22;16799;50.844;5.304;2023-04-23T12:20:42;18.30;92.90
29939;DHT22;16799;50.844;5.304;2023-04-23T12:23:08;18.30;91.90
29939;DHT22;16799;50.844;5.304;2023-04-23T12:25:34;18.40;92.50
29939;DHT22;16799;50.844;5.304;2023-04-23T12:28:02;18.50;91.30
29939;DHT22;16799;50.844;5.304;2023-04-23T12:30:32;18.70;91.40
29939;DHT22;16799;50.844;5.304;2023-04-23T12:32:59;18.80;90.70
29939;DHT22;16799;50.844;5.304;2023-04-23T12:35:40;18.90;91.40
29939;DHT22;16799;50.844;5.304;2023-04-23T12:38:06;19.30;91.00
29939;DHT22;16799;50.844;5.304;2023-04-23T12:40:32;19.60;90.70
29939;DHT22;16799;50.844;5.304;2023-04-23T12:42:58;19.40;91.10
29939;DHT22;16799;50.844;5.304;2023-04-23T12:45:24;19.30;90.60
29939;DHT22;16799;50.844;5.304;2023-04-23T12:47:50;18.90;90.70
29939;DHT22;16799;50.844;5.304;2023-04-23T12:50:17;18.30;91.30
29939;DHT22;16799;50.844;5.304;2023-04-23T12:52:42;18.00;92.40
29939;DHT22;16799;50.844;5.304;2023-04-23T12:55:08;17.50;93.30
29939;DHT22;16799;50.844;5.304;2023-04-23T12:57:34;17.20;94.90
29939;DHT22;16799;50.844;5.304;2023-04-23T12:59:59;16.80;95.60
29939;DHT22;16799;50.844;5.304;2023-04-23T13:02:25;16.80;96.50
29939;DHT22;16799;50.844;5.304;2023-04-23T13:04:51;16.70;96.40
29939;DHT22;16799;50.844;5.304;2023-04-23T13:07:18;16.70;97.60
29939;DHT22;16799;50.844;5.304;2023-04-23T13:09:44;16.70;97.90
29939;DHT22;16799;50.844;5.304;2023-04-23T13:12:10;16.60;98.60
29939;DHT22;16799;50.844;5.304;2023-04-23T13:14:35;16.40;99.90
29939;DHT22;16799;50.844;5.304;2023-04-23T13:17:01;16.00;99.90
29939;DHT22;16799;50.844;5.304;2023-04-23T13:19:26;16.00;99.90
29939;DHT22;16799;50.844;5.304;2023-04-23T13:21:52;15.90;99.90
29939;DHT22;16799;50.844;5.304;2023-04-23T13:24:18;15.80;99.90
29939;DHT22;16799;50.844;5.304;2023-04-23T13:26:43;15.80;99.90
29939;DHT22;16799;50.844;5.304;2023-04-23T13:29:10;15.80;99.90
29939;DHT22;16799;50.844;5.304;2023-04-23T13:31:35;15.80;99.90
29939;DHT22;16799;50.844;5.304;2023-04-23T13:34:01;15.70;99.90
29939;DHT22;16799;50.844;5.304;2023-04-23T13:36:27;15.80;99.90
29939;DHT22;16799;50.844;5.304;2023-04-23T13:38:53;16.00;99.90
29939;DHT22;16799;50.844;5.304;2023-04-23T13:41:18;16.20;99.90
29939;DHT22;16799;50.844;5.304;2023-04-23T13:43:44;16.30;99.90
29939;DHT22;16799;50.844;5.304;2023-04-23T13:46:10;16.30;99.90
29939;DHT22;16799;50.844;5.304;2023-04-23T13:48:36;16.30;99.90
29939;DHT22;16799;50.844;5.304;2023-04-23T13:51:01;16.40;99.90
29939;DHT22;16799;50.844;5.304;2023-04-23T13:53:27;16.40;99.90
29939;DHT22;16799;50.844;5.304;2023-04-23T13:55:54;16.40;99.90
29939;DHT22;16799;50.844;5.304;2023-04-23T13:58:20;16.20;99.90
29939;DHT22;16799;50.844;5.304;2023-04-23T14:00:46;15.90;99.90
29939;DHT22;16799;50.844;5.304;2023-04-23T14:03:12;15.80;99.90
29939;DHT22;16799;50.844;5.304;2023-04-23T14:05:37;15.60;99.90
29939;DHT22;16799;50.844;5.304;2023-04-23T14:08:03;15.30;99.90
29939;DHT22;16799;50.844;5.304;2023-04-23T14:10:29;15.20;99.90
29939;DHT22;16799;50.844;5.304;2023-04-23T14:12:55;15.10;99.90
29939;DHT22;16799;50.844;5.304;2023-04-23T14:15:21;15.10;99.90
29939;DHT22;16799;50.844;5.304;2023-04-23T14:17:47;15.00;99.90
29939;DHT22;16799;50.844;5.304;2023-04-23T14:20:14;14.80;99.90
29939;DHT22;16799;50.844;5.304;2023-04-23T14:22:40;14.80;99.90
29939;DHT22;16799;50.844;5.304;2023-04-23T14:25:14;14.80;99.90
29939;DHT22;16799;50.844;5.304;2023-04-23T14:27:44;14.60;99.90
29939;DHT22;16799;50.844;5.304;2023-04-23T14:30:19;14.70;99.90
29939;DHT22;16799;50.844;5.304;2023-04-23T14:32:46;14.70;99.90
29939;DHT22;16799;50.844;5.304;2023-04-23T14:35:13;14.60;99.90
29939;DHT22;16799;50.844;5.304;2023-04-23T14:37:39;14.50;99.90
29939;DHT22;16799;50.844;5.304;2023-04-23T14:40:10;14.60;99.90
29939;DHT22;16799;50.844;5.304;2023-04-23T14:42:38;14.60;99.90
29939;DHT22;16799;50.844;5.304;2023-04-23T14:45:03;14.70;99.90
29939;DHT22;16799;50.844;5.304;2023-04-23T14:47:29;14.80;99.90
29939;DHT22;16799;50.844;5.304;2023-04-23T14:49:55;14.80;99.90
29939;DHT22;16799;50.844;5.304;2023-04-23T14:52:22;14.80;99.90
29939;DHT22;16799;50.844;5.304;2023-04-23T14:54:48;14.90;99.90
29939;DHT22;16799;50.844;5.304;2023-04-23T14:57:13;15.00;99.90
29939;DHT22;16799;50.844;5.304;2023-04-23T14:59:39;14.90;99.90
29939;DHT22;16799;50.844;5.304;2023-04-23T15:02:05;15.00;99.90
29939;DHT22;16799;50.844;5.304;2023-04-23T15:04:30;15.00;99.90
29939;DHT22;16799;50.844;5.304;2023-04-23T15:06:56;15.00;99.90
29939;DHT22;16799;50.844;5.304;2023-04-23T15:09:22;15.00;99.90
29939;DHT22;16799;50.844;5.304;2023-04-23T15:11:47;15.10;99.90
29939;DHT22;16799;50.844;5.304;2023-04-23T15:16:49;15.40;99.90
29939;DHT22;16799;50.844;5.304;2023-04-23T15:19:16;15.60;99.90
29939;DHT22;16799;50.844;5.304;2023-04-23T15:21:42;15.80;99.90
29939;DHT22;16799;50.844;5.304;2023-04-23T15:24:08;16.00;99.90
29939;DHT22;16799;50.844;5.304;2023-04-23T15:26:34;16.00;99.90
29939;DHT22;16799;50.844;5.304;2023-04-23T15:29:00;16.10;99.90
29939;DHT22;16799;50.844;5.304;2023-04-23T15:31:27;16.40;99.90
29939;DHT22;16799;50.844;5.304;2023-04-23T15:33:53;16.50;99.90
29939;DHT22;16799;50.844;5.304;2023-04-23T15:36:18;16.50;99.90
29939;DHT22;16799;50.844;5.304;2023-04-23T15:38:44;16.40;99.90